Time;durP1;ratioP1;P1;durP2;ratioP2;P2;SDS_P1;SDS_P2;PMS_P1;PMS_P2;Temp;Humidity;BMP_temperature;BMP_pressure;BME280_temperature;BME280_humidity;BME280_pressure;Samples;Min_cycle;Max_cycle;Signal;HPM_P1;HPM_P2
2023/08/12 00:02:17;;;;;;;1.50;1.40;;;22.00;65.50;21.10;96920.00;;;;5069356;28;20684;-80
2023/08/12 00:04:47;;;;;;;1.63;1.40;;;22.00;65.50;21.10;96916.00;;;;5073248;28;20774;-80
2023/08/12 00:07:14;;;;;;;2.00;1.70;;;21.90;65.50;21.10;96914.00;;;;5076603;28;20189;-81
2023/08/12 00:09:42;;;;;;;1.50;1.40;;;21.90;65.50;21.10;96909.00;;;;5063250;28;20204;-80
2023/08/12 00:12:10;;;;;;;1.53;1.40;;;21.90;65.60;21.00;96907.00;;;;5077051;28;20202;-80
2023/08/12 00:14:37;;;;;;;1.63;1.53;;;21.80;65.90;21.00;96912.00;;;;5085557;28;20306;-80
2023/08/12 00:17:05;;;;;;;1.47;1.37;;;21.80;66.00;21.00;96905.00;;;;5079601;28;20197;-80
2023/08/12 00:19:32;;;;;;;1.43;1.33;;;21.80;66.10;21.00;96907.00;;;;5074064;28;20204;-80
2023/08/12 00:22:00;;;;;;;1.50;1.40;;;21.70;66.20;21.00;96900.00;;;;5070597;28;20700;-81
2023/08/12 00:24:27;;;;;;;1.53;1.37;;;21.70;66.30;20.90;96906.00;;;;5076757;28;20280;-81
2023/08/12 00:26:54;;;;;;;1.20;1.10;;;21.70;66.40;20.90;96905.00;;;;5073243;28;20207;-79
2023/08/12 00:29:23;;;;;;;1.43;1.33;;;21.70;66.50;20.90;96898.00;;;;5073128;28;20645;-79
2023/08/12 00:31:51;;;;;;;1.60;1.50;;;21.60;66.30;20.90;96899.00;;;;5088146;28;20210;-81
2023/08/12 00:34:19;;;;;;;1.10;1.10;;;21.60;66.20;20.80;96896.00;;;;5072983;28;20291;-82
2023/08/12 00:36:46;;;;;;;1.30;1.27;;;21.60;66.10;20.80;96895.00;;;;5090287;28;20196;-81
2023/08/12 00:39:14;;;;;;;1.30;1.20;;;21.60;66.90;20.80;96889.00;;;;5087462;28;20626;-81
2023/08/12 00:41:41;;;;;;;1.13;1.03;;;21.60;66.10;20.70;96890.00;;;;5080356;28;20268;-80
2023/08/12 00:44:09;;;;;;;1.47;1.37;;;21.60;66.10;20.70;96892.00;;;;5079248;28;20751;-81
2023/08/12 00:46:39;;;;;;;1.90;1.40;;;21.50;66.10;20.70;96895.00;;;;5078974;28;20192;-81
2023/08/12 00:49:07;;;;;;;1.93;1.30;;;21.50;66.20;20.60;96898.00;;;;5078932;28;20295;-80
2023/08/12 00:51:35;;;;;;;1.50;1.40;;;21.50;66.20;20.60;96892.00;;;;5069356;28;20283;-81
2023/08/12 00:54:06;;;;;;;2.60;1.60;;;21.40;66.20;20.50;96887.00;;;;5077276;28;20281;-81
2023/08/12 00:56:36;;;;;;;2.53;1.70;;;21.40;66.20;20.50;96892.00;;;;5070046;28;20224;-80
2023/08/12 00:59:08;;;;;;;2.17;1.63;;;21.30;66.20;20.50;96888.00;;;;5072486;28;20286;-80
2023/08/12 01:01:41;;;;;;;1.73;1.30;;;21.30;66.30;20.40;96886.00;;;;5078327;28;20192;-80
2023/08/12 01:04:08;;;;;;;1.53;1.43;;;21.30;66.30;20.40;96892.00;;;;5070240;28;20231;-82
2023/08/12 01:06:36;;;;;;;1.20;1.07;;;21.20;66.30;20.40;96893.00;;;;5070309;28;20283;-80
2023/08/12 01:09:06;;;;;;;1.23;1.13;;;21.30;66.40;20.30;96892.00;;;;5078071;28;20224;-80
2023/08/12 01:11:43;;;;;;;1.47;1.37;;;21.20;66.50;20.30;96882.00;;;;5052000;28;20881;-79
2023/08/12 01:14:19;;;;;;;1.93;1.50;;;21.20;66.80;20.30;96884.00;;;;5077358;28;20215;-81
2023/08/12 01:16:54;;;;;;;1.33;1.23;;;21.20;66.80;20.20;96887.00;;;;5077877;28;20283;-80
2023/08/12 01:19:33;;;;;;;1.03;1.03;;;21.10;66.80;20.20;96885.00;;;;5070450;28;20227;-80
2023/08/12 01:22:02;;;;;;;1.47;1.37;;;21.10;66.90;20.20;96875.00;;;;5069276;28;20198;-80
2023/08/12 01:24:37;;;;;;;1.57;1.47;;;21.10;66.70;20.20;96874.00;;;;5068844;28;20724;-80
2023/08/12 01:27:05;;;;;;;2.10;1.43;;;21.10;67.00;20.10;96867.00;;;;5076943;28;20201;-80
2023/08/12 01:29:34;;;;;;;1.70;1.60;;;21.00;66.90;20.10;96864.00;;;;5066817;28;20241;-80
2023/08/12 01:32:18;;;;;;;1.43;1.33;;;21.00;67.20;20.10;96868.00;;;;5054454;28;20233;-80
2023/08/12 01:34:51;;;;;;;1.50;1.40;;;21.00;67.60;20.10;96862.00;;;;5073575;28;20239;-80
2023/08/12 01:37:26;;;;;;;1.70;1.60;;;20.90;67.50;20.10;96863.00;;;;5076530;28;20199;-80
2023/08/12 01:39:57;;;;;;;1.57;1.47;;;20.90;67.70;20.10;96861.00;;;;5061736;28;20245;-80
2023/08/12 01:42:27;;;;;;;1.60;1.50;;;20.90;67.70;20.10;96857.00;;;;5068515;28;20572;-80
2023/08/12 01:44:55;;;;;;;1.73;1.63;;;20.90;67.80;20.10;96854.00;;;;5069390;28;20235;-80
2023/08/12 01:47:22;;;;;;;1.60;1.50;;;20.90;67.80;20.10;96859.00;;;;5078192;28;20203;-80
2023/08/12 01:49:49;;;;;;;1.40;1.30;;;20.90;67.80;20.10;96856.00;;;;5057809;28;20200;-80
2023/08/12 01:52:18;;;;;;;1.70;1.60;;;20.80;67.70;20.10;96854.00;;;;5069722;28;20686;-81
2023/08/12 01:54:45;;;;;;;1.40;1.30;;;20.90;67.80;20.00;96856.00;;;;5056921;28;20227;-80
2023/08/12 01:57:17;;;;;;;1.40;1.30;;;20.80;67.70;20.00;96847.00;;;;5064051;28;20214;-80
2023/08/12 01:59:45;;;;;;;1.50;1.40;;;20.80;67.70;20.00;96848.00;;;;5049679;28;20278;-80
2023/08/12 02:02:14;;;;;;;1.27;1.17;;;20.80;67.60;20.00;96846.00;;;;5073407;28;20205;-80
2023/08/12 02:04:42;;;;;;;1.77;1.43;;;20.80;67.60;19.90;96851.00;;;;5070202;28;20230;-80
2023/08/12 02:07:10;;;;;;;1.23;1.13;;;20.80;67.50;19.90;96853.00;;;;5068694;28;20302;-81
2023/08/12 02:09:38;;;;;;;1.50;1.23;;;20.80;67.50;19.90;96841.00;;;;5068296;28;20204;-81
2023/08/12 02:12:07;;;;;;;1.90;1.80;;;20.70;67.30;19.80;96835.00;;;;5065078;28;20305;-81
2023/08/12 02:14:36;;;;;;;1.53;1.43;;;20.70;67.40;19.80;96832.00;;;;5065984;28;20222;-80
2023/08/12 02:17:05;;;;;;;1.50;1.40;;;20.70;67.40;19.80;96830.00;;;;5078353;28;20203;-81
2023/08/12 02:19:34;;;;;;;2.40;1.40;;;20.60;67.30;19.70;96833.00;;;;5059683;28;20222;-79
2023/08/12 02:22:03;;;;;;;1.80;1.47;;;20.60;67.30;19.70;96829.00;;;;5069085;28;20658;-80
2023/08/12 02:24:31;;;;;;;2.03;1.57;;;20.60;67.40;19.70;96824.00;;;;5068471;28;20598;-80
2023/08/12 02:26:58;;;;;;;1.50;1.40;;;20.60;67.50;19.60;96824.00;;;;5056098;28;20215;-79
2023/08/12 02:29:26;;;;;;;1.83;1.57;;;20.50;67.40;19.60;96817.00;;;;5065018;28;20218;-80
2023/08/12 02:31:54;;;;;;;1.57;1.37;;;20.50;67.50;19.60;96814.00;;;;5064541;28;20212;-80
2023/08/12 02:34:22;;;;;;;1.80;1.70;;;20.50;67.60;19.60;96809.00;;;;5064911;28;20221;-80
2023/08/12 02:36:50;;;;;;;1.73;1.40;;;20.40;67.60;19.50;96816.00;;;;5071736;28;20211;-81
2023/08/12 02:39:17;;;;;;;1.60;1.50;;;20.40;67.70;19.50;96813.00;;;;5065054;28;20231;-80
2023/08/12 02:41:46;;;;;;;1.70;1.60;;;20.40;67.80;19.40;96809.00;;;;5069651;28;20192;-80
2023/08/12 02:44:13;;;;;;;2.07;1.87;;;20.30;67.80;19.40;96806.00;;;;5080150;28;20654;-80
2023/08/12 02:46:43;;;;;;;1.90;1.80;;;20.30;68.00;19.40;96808.00;;;;5078981;28;20207;-80
2023/08/12 02:49:13;;;;;;;2.10;1.90;;;20.20;67.90;19.30;96809.00;;;;5074263;28;20238;-80
2023/08/12 02:51:40;;;;;;;2.57;1.33;;;20.20;68.10;19.30;96811.00;;;;5079414;28;20246;-80
2023/08/12 02:54:09;;;;;;;1.50;1.40;;;20.20;68.10;19.30;96806.00;;;;5080393;28;20239;-80
2023/08/12 02:56:38;;;;;;;1.60;1.50;;;20.20;68.20;19.20;96808.00;;;;5063582;28;20233;-80
2023/08/12 02:59:05;;;;;;;2.00;1.40;;;20.10;68.90;19.20;96814.00;;;;5084207;28;20199;-80
2023/08/12 03:01:33;;;;;;;2.67;1.80;;;20.10;68.20;19.20;96810.00;;;;5082180;28;20265;-79
2023/08/12 03:04:02;;;;;;;2.50;1.50;;;20.10;68.20;19.10;96805.00;;;;5082464;28;20219;-80
2023/08/12 03:06:32;;;;;;;1.53;1.40;;;20.00;68.20;19.10;96800.00;;;;5082071;28;20200;-81
2023/08/12 03:08:59;;;;;;;2.73;1.50;;;20.00;68.40;19.10;96799.00;;;;5069503;28;20578;-80
2023/08/12 03:11:27;;;;;;;1.70;1.60;;;20.00;68.40;19.10;96790.00;;;;5072549;28;20200;-80
2023/08/12 03:13:54;;;;;;;1.63;1.53;;;19.90;68.50;19.00;96791.00;;;;5075916;28;20231;-80
2023/08/12 03:16:22;;;;;;;2.40;2.10;;;19.90;68.60;19.00;96791.00;;;;5073938;28;20589;-80
2023/08/12 03:18:49;;;;;;;2.87;1.80;;;19.90;68.90;19.00;96788.00;;;;5074929;28;20190;-79
2023/08/12 03:21:17;;;;;;;1.80;1.70;;;19.90;69.00;19.00;96791.00;;;;5077598;28;20198;-80
2023/08/12 03:23:46;;;;;;;1.93;1.73;;;19.80;68.90;19.00;96791.00;;;;5073133;28;20211;-79
2023/08/12 03:26:14;;;;;;;2.37;1.77;;;19.80;69.00;19.00;96786.00;;;;5056633;28;20268;-81
2023/08/12 03:28:41;;;;;;;1.90;1.70;;;19.80;69.00;18.90;96780.00;;;;5075059;28;20249;-80
2023/08/12 03:31:09;;;;;;;2.17;1.70;;;19.80;69.10;18.90;96797.00;;;;5063056;28;20200;-80
2023/08/12 03:33:37;;;;;;;2.50;1.60;;;19.80;69.00;18.90;96798.00;;;;5074082;28;20216;-80
2023/08/12 03:36:06;;;;;;;2.03;1.90;;;19.80;69.00;18.90;96795.00;;;;5079163;28;20216;-80
2023/08/12 03:38:36;;;;;;;1.83;1.73;;;19.80;68.90;18.90;96790.00;;;;5076565;28;20280;-80
2023/08/12 03:41:06;;;;;;;1.80;1.70;;;19.80;69.00;18.80;96792.00;;;;5067998;28;20255;-80
2023/08/12 03:43:34;;;;;;;1.90;1.80;;;19.70;69.10;18.80;96786.00;;;;5068293;28;20628;-79
2023/08/12 03:46:01;;;;;;;1.93;1.63;;;19.70;69.20;18.80;96787.00;;;;5070267;28;20208;-80
2023/08/12 03:48:29;;;;;;;1.90;1.80;;;19.70;69.40;18.80;96787.00;;;;5067010;28;20254;-80
2023/08/12 03:50:57;;;;;;;2.10;2.00;;;19.70;69.50;18.80;96780.00;;;;5055583;28;20201;-80
2023/08/12 03:53:26;;;;;;;3.10;2.37;;;19.60;69.40;18.80;96785.00;;;;5072105;28;20204;-80
2023/08/12 03:55:54;;;;;;;2.23;2.13;;;19.60;69.50;18.80;96776.00;;;;5067396;28;20228;-80
2023/08/12 03:58:25;;;;;;;2.27;2.07;;;19.60;69.50;18.80;96783.00;;;;5077521;28;20292;-79
2023/08/12 04:00:53;;;;;;;2.63;1.93;;;19.60;69.70;18.70;96784.00;;;;5067845;28;20200;-80
2023/08/12 04:03:21;;;;;;;1.83;1.73;;;19.60;69.60;18.70;96785.00;;;;5077811;28;20291;-79
2023/08/12 04:05:52;;;;;;;2.10;1.90;;;19.60;69.70;18.70;96781.00;;;;5060819;28;20704;-79
2023/08/12 04:08:20;;;;;;;1.80;1.70;;;19.60;69.90;18.70;96793.00;;;;5076287;28;20204;-80
2023/08/12 04:10:48;;;;;;;2.03;1.83;;;19.60;69.80;18.70;96789.00;;;;5071117;28;20196;-79
2023/08/12 04:13:16;;;;;;;1.73;1.63;;;19.60;69.90;18.70;96787.00;;;;5078128;28;20192;-79
2023/08/12 04:15:50;;;;;;;1.97;1.87;;;19.50;69.90;18.70;96785.00;;;;5085910;28;20253;-79
2023/08/12 04:18:18;;;;;;;2.00;1.90;;;19.60;70.50;18.70;96788.00;;;;5061734;28;20200;-79
2023/08/12 04:20:47;;;;;;;2.10;1.70;;;19.50;70.30;18.70;96790.00;;;;5065035;28;20226;-80
2023/08/12 04:23:15;;;;;;;1.93;1.83;;;19.60;70.50;18.70;96791.00;;;;5048964;28;20201;-79
2023/08/12 04:25:46;;;;;;;2.20;2.00;;;19.60;70.40;18.70;96787.00;;;;5065301;28;20307;-79
2023/08/12 04:28:13;;;;;;;2.00;1.87;;;19.60;70.50;18.70;96789.00;;;;5073383;28;20259;-79
2023/08/12 04:30:46;;;;;;;2.30;2.10;;;19.60;70.50;18.70;96784.00;;;;5069477;28;20283;-80
2023/08/12 04:33:14;;;;;;;2.27;2.10;;;19.60;70.60;18.70;96784.00;;;;5070015;28;20196;-80
2023/08/12 04:35:42;;;;;;;2.07;1.97;;;19.60;70.50;18.70;96783.00;;;;5076080;28;20303;-80
2023/08/12 04:38:10;;;;;;;3.17;2.07;;;19.60;70.60;18.70;96784.00;;;;5056019;28;20207;-80
2023/08/12 04:40:40;;;;;;;3.40;2.17;;;19.60;70.70;18.70;96782.00;;;;5073319;28;20207;-79
2023/08/12 04:43:08;;;;;;;2.73;2.20;;;19.60;70.80;18.70;96781.00;;;;5073349;28;20711;-79
2023/08/12 04:45:36;;;;;;;2.43;2.23;;;19.60;70.80;18.80;96789.00;;;;5079923;28;20756;-79
2023/08/12 04:48:08;;;;;;;2.23;2.13;;;19.60;70.90;18.70;96792.00;;;;5080922;28;20279;-79
2023/08/12 04:50:35;;;;;;;3.10;2.50;;;19.60;71.00;18.70;96783.00;;;;5075153;28;20342;-80
2023/08/12 04:53:03;;;;;;;2.63;2.20;;;19.60;71.00;18.70;96787.00;;;;5069948;28;20216;-81
2023/08/12 04:55:31;;;;;;;2.07;1.97;;;19.60;71.00;18.70;96797.00;;;;5066396;28;20270;-80
2023/08/12 04:57:59;;;;;;;2.13;2.03;;;19.60;71.10;18.80;96785.00;;;;5069269;28;20206;-80
2023/08/12 05:00:27;;;;;;;2.73;2.53;;;19.60;71.10;18.80;96791.00;;;;5081909;28;20222;-80
2023/08/12 05:02:55;;;;;;;2.30;2.20;;;19.60;71.20;18.80;96790.00;;;;5071701;28;20220;-80
2023/08/12 05:05:24;;;;;;;2.87;2.50;;;19.60;71.40;18.80;96797.00;;;;5072907;28;20619;-80
2023/08/12 05:07:52;;;;;;;2.53;2.33;;;19.60;71.70;18.80;96781.00;;;;5077878;28;20199;-78
2023/08/12 05:10:20;;;;;;;2.60;2.40;;;19.60;71.80;18.80;96782.00;;;;5075637;28;20670;-80
2023/08/12 05:12:50;;;;;;;2.70;2.50;;;19.60;72.00;18.80;96785.00;;;;5080991;28;20235;-79
2023/08/12 05:15:19;;;;;;;2.57;2.37;;;19.60;72.10;18.80;96787.00;;;;5073114;28;20217;-80
2023/08/12 05:17:47;;;;;;;2.30;2.20;;;19.60;72.30;18.90;96792.00;;;;5070671;28;20224;-80
2023/08/12 05:20:15;;;;;;;2.40;2.30;;;19.60;72.40;18.90;96789.00;;;;5073276;28;20223;-80
2023/08/12 05:22:44;;;;;;;3.00;2.80;;;19.70;72.70;18.90;96784.00;;;;5081609;28;20271;-81
2023/08/12 05:25:12;;;;;;;2.50;2.30;;;19.70;73.00;19.00;96787.00;;;;5080351;28;20216;-81
2023/08/12 05:27:39;;;;;;;2.60;2.40;;;19.70;73.20;19.00;96785.00;;;;5082743;28;20278;-80
2023/08/12 05:30:08;;;;;;;3.20;2.90;;;19.70;73.30;19.00;96788.00;;;;5087016;28;20200;-81
2023/08/12 05:32:36;;;;;;;2.87;2.67;;;19.80;73.50;19.10;96790.00;;;;5077934;28;20231;-81
2023/08/12 05:35:04;;;;;;;2.83;2.67;;;19.80;73.70;19.10;96791.00;;;;5086458;28;20251;-80
2023/08/12 05:37:31;;;;;;;4.20;3.20;;;19.80;73.90;19.20;96792.00;;;;5080155;28;20224;-79
2023/08/12 05:40:00;;;;;;;3.03;2.70;;;19.90;74.20;19.20;96784.00;;;;5062389;28;20203;-81
2023/08/12 05:42:28;;;;;;;3.07;2.63;;;19.90;74.40;19.30;96785.00;;;;5080606;28;20222;-81
2023/08/12 05:44:56;;;;;;;2.80;2.60;;;20.00;74.60;19.40;96780.00;;;;5076431;28;20255;-81
2023/08/12 05:47:24;;;;;;;3.30;3.00;;;20.00;74.70;19.40;96790.00;;;;5064877;28;20196;-81
2023/08/12 05:49:52;;;;;;;2.80;2.57;;;20.10;74.90;19.50;96794.00;;;;5087093;28;20201;-81
2023/08/12 05:52:20;;;;;;;3.93;3.07;;;20.10;75.00;19.50;96797.00;;;;5081090;28;20297;-81
2023/08/12 05:54:47;;;;;;;4.87;2.70;;;20.20;75.10;19.60;96788.00;;;;5090467;28;20774;-79
2023/08/12 05:57:16;;;;;;;2.97;2.77;;;20.20;75.20;19.70;96790.00;;;;5084980;28;20268;-79
2023/08/12 05:59:43;;;;;;;3.07;2.70;;;20.30;75.50;19.70;96784.00;;;;5091114;28;20214;-80
2023/08/12 06:02:11;;;;;;;3.00;2.80;;;20.40;75.50;19.80;96786.00;;;;5083401;28;20619;-81
2023/08/12 06:04:38;;;;;;;2.97;2.77;;;20.40;75.60;19.90;96785.00;;;;5078091;28;20254;-80
2023/08/12 06:07:06;;;;;;;3.00;2.80;;;20.50;75.70;19.90;96791.00;;;;5076149;28;20230;-81
2023/08/12 06:09:34;;;;;;;3.20;3.00;;;20.60;75.80;20.00;96788.00;;;;5076494;28;20204;-80
2023/08/12 06:12:01;;;;;;;3.60;3.30;;;20.60;75.80;20.10;96786.00;;;;5076517;28;20694;-80
2023/08/12 06:14:30;;;;;;;3.33;3.00;;;20.70;76.70;20.10;96785.00;;;;5074648;28;20254;-81
2023/08/12 06:16:57;;;;;;;4.00;2.53;;;20.70;76.10;20.20;96789.00;;;;5067298;28;20286;-80
2023/08/12 06:19:30;;;;;;;3.03;2.80;;;20.80;76.00;20.30;96784.00;;;;5075701;28;20280;-82
2023/08/12 06:21:57;;;;;;;3.00;2.60;;;20.80;76.00;20.40;96783.00;;;;5066928;28;20625;-81
2023/08/12 06:24:25;;;;;;;3.03;2.83;;;20.90;75.90;20.40;96781.00;;;;5063356;28;20743;-80
2023/08/12 06:26:53;;;;;;;2.97;2.77;;;21.00;76.10;20.50;96784.00;;;;5083776;28;20752;-81
2023/08/12 06:29:23;;;;;;;3.73;2.90;;;21.10;76.10;20.60;96792.00;;;;5073692;28;20292;-79
2023/08/12 06:31:54;;;;;;;3.17;2.87;;;21.10;76.30;20.70;96782.00;;;;5071780;28;20220;-79
2023/08/12 06:34:24;;;;;;;2.93;2.63;;;21.20;76.30;20.70;96783.00;;;;5075694;28;20235;-81
2023/08/12 06:36:51;;;;;;;2.90;2.70;;;21.30;76.10;20.80;96784.00;;;;5080018;28;20216;-81
2023/08/12 06:39:19;;;;;;;2.67;2.47;;;21.30;75.90;20.90;96783.00;;;;5080638;28;20263;-78
2023/08/12 06:41:46;;;;;;;2.83;2.63;;;21.40;75.90;21.00;96777.00;;;;5074270;28;20242;-79
2023/08/12 06:44:14;;;;;;;2.87;2.67;;;21.50;75.90;21.10;96780.00;;;;5069464;28;20212;-79
2023/08/12 06:46:42;;;;;;;4.13;2.50;;;21.60;75.80;21.20;96781.00;;;;5073038;28;20203;-79
2023/08/12 06:49:10;;;;;;;3.10;2.70;;;21.60;75.80;21.30;96778.00;;;;5056342;28;20292;-80
2023/08/12 06:51:38;;;;;;;3.00;2.80;;;21.70;76.00;21.30;96785.00;;;;5064289;28;20235;-79
2023/08/12 06:54:06;;;;;;;3.33;3.10;;;21.80;75.90;21.40;96779.00;;;;5071441;28;20227;-79
2023/08/12 06:56:34;;;;;;;5.33;2.80;;;21.90;75.60;21.50;96780.00;;;;5056467;28;20766;-79
2023/08/12 06:59:01;;;;;;;2.80;2.60;;;22.00;75.70;21.60;96785.00;;;;5073792;28;20235;-79
2023/08/12 07:01:28;;;;;;;3.80;3.50;;;22.10;75.70;21.70;96780.00;;;;5072795;28;20689;-78
2023/08/12 07:03:56;;;;;;;3.27;2.97;;;22.20;75.30;21.90;96771.00;;;;5074728;28;20219;-80
2023/08/12 07:06:25;;;;;;;3.60;3.37;;;22.30;75.40;22.00;96774.00;;;;5077419;28;20287;-79
2023/08/12 07:08:52;;;;;;;3.57;3.37;;;22.30;75.30;22.10;96770.00;;;;5065536;28;20283;-79
2023/08/12 07:11:19;;;;;;;3.17;2.57;;;22.50;75.20;22.30;96772.00;;;;5051472;28;20193;-79
2023/08/12 07:13:47;;;;;;;3.50;2.97;;;22.60;75.30;22.40;96768.00;;;;5070303;28;20278;-79
2023/08/12 07:16:15;;;;;;;3.20;3.00;;;22.70;75.20;22.60;96769.00;;;;5070618;28;20201;-79
2023/08/12 07:18:42;;;;;;;3.20;2.90;;;22.90;75.30;22.70;96771.00;;;;5074170;28;20212;-78
2023/08/12 07:21:10;;;;;;;2.97;2.77;;;23.00;75.30;22.90;96769.00;;;;5075982;28;20196;-80
2023/08/12 07:23:39;;;;;;;2.60;2.40;;;23.20;75.30;23.00;96764.00;;;;5074880;28;20200;-80
2023/08/12 07:26:06;;;;;;;2.50;2.40;;;23.30;75.10;23.10;96759.00;;;;5062400;28;20286;-80
2023/08/12 07:28:33;;;;;;;3.07;2.87;;;23.40;74.80;23.30;96769.00;;;;5074459;28;20203;-80
2023/08/12 07:31:02;;;;;;;2.87;2.67;;;23.60;74.50;23.40;96766.00;;;;5063668;28;20204;-79
2023/08/12 07:33:30;;;;;;;2.73;2.53;;;23.70;74.20;23.60;96765.00;;;;5053514;28;20291;-79
2023/08/12 07:35:57;;;;;;;2.90;2.67;;;23.90;73.60;23.70;96756.00;;;;5065908;28;20222;-80
2023/08/12 07:38:25;;;;;;;3.40;2.53;;;24.00;73.30;23.80;96768.00;;;;5074072;28;20572;-80
2023/08/12 07:40:54;;;;;;;2.90;2.70;;;24.10;72.80;24.00;96764.00;;;;5074258;28;20278;-79
2023/08/12 07:43:21;;;;;;;2.93;2.70;;;24.30;73.00;24.20;96762.00;;;;5074787;28;20200;-79
2023/08/12 07:45:52;;;;;;;2.87;2.57;;;24.40;72.40;24.30;96764.00;;;;5073745;28;20219;-79
2023/08/12 07:48:20;;;;;;;3.57;2.30;;;24.60;72.60;24.40;96769.00;;;;5074695;28;20204;-79
2023/08/12 07:50:48;;;;;;;3.50;2.10;;;24.70;72.40;24.60;96778.00;;;;5070868;28;20194;-79
2023/08/12 07:53:16;;;;;;;2.20;2.10;;;24.80;72.20;24.70;96787.00;;;;5066861;28;20623;-79
2023/08/12 07:55:43;;;;;;;2.70;2.50;;;25.00;72.10;24.80;96787.00;;;;5078983;28;20298;-79
2023/08/12 07:58:12;;;;;;;2.77;2.57;;;25.10;71.60;25.00;96780.00;;;;5077697;28;20300;-78
2023/08/12 08:00:40;;;;;;;2.77;2.57;;;25.20;71.10;25.10;96786.00;;;;5069362;28;20661;-78
2023/08/12 08:03:08;;;;;;;2.47;2.37;;;25.30;70.70;25.20;96783.00;;;;5073980;28;20196;-78
2023/08/12 08:05:35;;;;;;;3.17;2.67;;;25.50;71.40;25.30;96775.00;;;;5069654;28;20212;-78
2023/08/12 08:08:03;;;;;;;2.43;2.23;;;25.60;70.10;25.50;96774.00;;;;5063342;28;20562;-79
2023/08/12 08:10:31;;;;;;;2.53;2.43;;;25.70;69.80;25.60;96783.00;;;;5070900;28;20652;-78
2023/08/12 08:13:00;;;;;;;2.33;2.23;;;25.80;69.70;25.70;96775.00;;;;5051201;28;20216;-78
2023/08/12 08:15:28;;;;;;;2.27;2.10;;;26.00;69.70;25.90;96773.00;;;;5051685;28;20214;-79
2023/08/12 08:17:56;;;;;;;2.47;2.27;;;26.10;69.10;26.00;96773.00;;;;5062180;28;20220;-80
2023/08/12 08:20:23;;;;;;;2.17;2.07;;;26.20;68.90;26.10;96777.00;;;;5072971;28;20636;-79
2023/08/12 08:22:51;;;;;;;2.20;2.10;;;26.30;68.60;26.30;96770.00;;;;5067193;28;20212;-79
2023/08/12 08:25:18;;;;;;;2.22;2.13;;;26.50;68.50;26.40;96777.00;;;;5068407;28;20221;-78
2023/08/12 08:27:45;;;;;;;2.10;2.00;;;26.60;68.00;26.60;96772.00;;;;5066764;28;20286;-78
2023/08/12 08:30:13;;;;;;;2.33;2.22;;;26.80;68.20;26.70;96779.00;;;;5067968;28;20291;-78
2023/08/12 08:32:42;;;;;;;2.47;2.27;;;26.90;68.00;26.90;96778.00;;;;5057999;28;20207;-79
2023/08/12 08:35:09;;;;;;;3.63;2.17;;;27.00;67.10;27.00;96779.00;;;;5066292;28;20212;-79
2023/08/12 08:37:37;;;;;;;1.90;1.80;;;27.20;67.50;27.20;96772.00;;;;5076189;28;20230;-78
2023/08/12 08:40:05;;;;;;;2.70;2.40;;;27.30;67.20;27.30;96769.00;;;;5055280;28;20285;-78
2023/08/12 08:42:33;;;;;;;2.33;2.03;;;27.50;66.50;27.40;96774.00;;;;5075346;28;20211;-79
2023/08/12 08:45:03;;;;;;;2.35;2.15;;;27.60;66.10;27.50;96776.00;;;;5078534;28;20722;-80
2023/08/12 08:47:31;;;;;;;2.20;2.00;;;27.70;65.50;27.70;96779.00;;;;5070058;28;20296;-78
2023/08/12 08:50:02;;;;;;;2.75;2.55;;;27.80;65.80;27.80;96775.00;;;;5032323;28;20199;-79
2023/08/12 08:52:32;;;;;;;1.85;1.75;;;28.00;66.00;28.00;96774.00;;;;5073408;28;20196;-78
2023/08/12 08:55:01;;;;;;;2.00;1.90;;;28.10;65.90;28.20;96773.00;;;;5061184;28;20319;-79
2023/08/12 08:57:30;;;;;;;1.95;1.85;;;28.30;65.20;28.30;96776.00;;;;5066866;28;20307;-78
2023/08/12 08:59:58;;;;;;;1.77;1.67;;;28.40;64.90;28.50;96785.00;;;;5072147;28;20200;-80
2023/08/12 09:02:27;;;;;;;1.92;1.83;;;28.60;64.90;28.60;96782.00;;;;5066292;28;20305;-78
2023/08/12 09:04:56;;;;;;;1.95;1.85;;;28.70;63.80;28.80;96784.00;;;;5060873;28;20217;-78
2023/08/12 09:07:25;;;;;;;2.05;1.95;;;28.90;63.60;28.90;96772.00;;;;5071847;28;20202;-79
2023/08/12 09:09:57;;;;;;;2.13;2.03;;;29.00;63.10;29.10;96767.00;;;;5074875;28;20242;-79
2023/08/12 09:12:26;;;;;;;2.38;1.85;;;29.10;62.40;29.20;96779.00;;;;5070447;28;20206;-79
2023/08/12 09:14:53;;;;;;;1.80;1.70;;;29.30;62.40;29.20;96769.00;;;;5070865;28;20290;-79
2023/08/12 09:17:22;;;;;;;2.15;1.80;;;29.40;62.50;29.30;96773.00;;;;5071930;28;20307;-79
2023/08/12 09:19:50;;;;;;;1.73;1.63;;;29.50;62.00;29.40;96782.00;;;;5079260;28;20215;-79
2023/08/12 09:22:19;;;;;;;1.42;1.33;;;29.50;61.80;29.40;96785.00;;;;5076975;28;20204;-78
2023/08/12 09:24:50;;;;;;;1.98;1.88;;;29.60;61.80;29.40;96785.00;;;;5077900;28;20625;-80
2023/08/12 09:27:19;;;;;;;1.88;1.77;;;29.70;61.40;29.50;96790.00;;;;5068594;28;20201;-79
2023/08/12 09:29:47;;;;;;;2.03;1.92;;;29.70;61.30;29.50;96789.00;;;;5066160;28;20203;-80
2023/08/12 09:32:20;;;;;;;2.08;1.98;;;29.70;60.80;29.50;96792.00;;;;5054853;28;20197;-79
2023/08/12 09:34:48;;;;;;;2.03;1.92;;;29.80;60.30;29.50;96787.00;;;;5075751;28;20216;-80
2023/08/12 09:37:17;;;;;;;2.08;1.73;;;29.80;60.00;29.60;96789.00;;;;5068229;28;20224;-80
2023/08/12 09:39:45;;;;;;;1.83;1.73;;;29.80;60.20;29.60;96797.00;;;;5063775;28;20215;-79
2023/08/12 09:42:15;;;;;;;1.92;1.83;;;29.90;61.00;29.70;96787.00;;;;5060979;28;20196;-79
2023/08/12 09:44:45;;;;;;;2.25;1.80;;;29.90;59.70;29.70;96786.00;;;;5074992;28;20235;-79
2023/08/12 09:47:12;;;;;;;1.70;1.60;;;30.00;60.20;29.80;96780.00;;;;5074126;28;20195;-79
2023/08/12 09:49:40;;;;;;;1.70;1.60;;;30.00;60.20;29.80;96788.00;;;;5071854;28;20199;-78
2023/08/12 09:52:09;;;;;;;1.45;1.40;;;30.00;60.60;29.80;96788.00;;;;5068261;28;20196;-80
2023/08/12 09:54:37;;;;;;;2.15;1.95;;;30.10;60.10;29.80;96781.00;;;;5073991;28;20310;-79
2023/08/12 09:57:07;;;;;;;2.00;1.90;;;30.10;59.90;29.80;96776.00;;;;5056214;28;20195;-79
2023/08/12 09:59:38;;;;;;;2.45;2.00;;;30.10;60.20;29.90;96783.00;;;;5072666;28;20245;-79
2023/08/12 10:02:07;;;;;;;2.28;1.60;;;30.20;60.00;29.90;96779.00;;;;5068469;28;20231;-78
2023/08/12 10:04:41;;;;;;;1.55;1.45;;;30.20;60.00;30.00;96777.00;;;;5075397;28;20850;-79
2023/08/12 10:07:12;;;;;;;1.70;1.60;;;30.20;60.50;30.10;96778.00;;;;5062041;28;20204;-78
2023/08/12 10:09:42;;;;;;;1.77;1.67;;;30.30;60.10;30.20;96777.00;;;;5075888;28;20546;-78
2023/08/12 10:12:12;;;;;;;1.75;1.65;;;30.40;59.80;30.30;96781.00;;;;5082878;28;20282;-79
2023/08/12 10:14:41;;;;;;;1.52;1.42;;;30.50;59.80;30.40;96783.00;;;;5086084;28;20224;-79
2023/08/12 10:17:10;;;;;;;2.25;1.80;;;30.60;59.20;30.50;96772.00;;;;5062569;28;20199;-79
2023/08/12 10:19:45;;;;;;;1.40;1.30;;;30.70;59.20;30.60;96778.00;;;;5080604;28;20236;-79
2023/08/12 10:22:14;;;;;;;1.70;1.60;;;30.80;59.80;30.70;96776.00;;;;5079188;28;20234;-79
2023/08/12 10:24:45;;;;;;;1.92;1.83;;;30.90;59.50;30.80;96774.00;;;;5082114;28;20220;-78
2023/08/12 10:27:15;;;;;;;1.60;1.50;;;31.00;59.70;30.80;96774.00;;;;5074945;28;20287;-80
2023/08/12 10:29:47;;;;;;;1.60;1.50;;;31.10;58.30;30.90;96767.00;;;;5055416;28;20204;-80
2023/08/12 10:32:15;;;;;;;1.80;1.70;;;31.10;58.50;30.90;96776.00;;;;5074149;28;20562;-79
2023/08/12 10:34:43;;;;;;;1.70;1.60;;;31.10;57.30;30.90;96773.00;;;;5073464;28;20307;-80
2023/08/12 10:37:12;;;;;;;1.50;1.40;;;31.10;57.80;31.00;96771.00;;;;5055766;28;20283;-79
2023/08/12 10:39:40;;;;;;;1.63;1.52;;;31.20;57.60;31.10;96772.00;;;;5063355;28;20665;-80
2023/08/12 10:42:08;;;;;;;1.77;1.65;;;31.20;57.20;31.20;96766.00;;;;5052883;28;20224;-79
2023/08/12 10:44:49;;;;;;;1.48;1.35;;;31.30;57.10;31.30;96773.00;;;;5068183;28;20299;-80
2023/08/12 10:47:18;;;;;;;1.85;1.40;;;31.40;57.30;31.40;96776.00;;;;5072311;28;20274;-79
2023/08/12 10:49:52;;;;;;;1.67;1.58;;;31.50;57.00;31.60;96769.00;;;;5055794;28;20696;-80
2023/08/12 10:52:32;;;;;;;2.28;1.45;;;31.60;56.90;31.70;96770.00;;;;5071472;28;20565;-80
2023/08/12 10:55:18;;;;;;;1.80;1.70;;;31.70;56.40;31.90;96770.00;;;;5064522;28;20652;-80
2023/08/12 10:57:46;;;;;;;2.75;1.85;;;31.90;56.60;32.00;96771.00;;;;5062220;28;20716;-80
2023/08/12 11:00:17;;;;;;;1.70;1.60;;;32.00;57.10;32.10;96767.00;;;;5054257;28;20212;-79
2023/08/12 11:02:52;;;;;;;1.70;1.60;;;32.20;56.40;32.10;96761.00;;;;5064540;28;20687;-80